Madras, OR (97741)

11:37 PM PST on January 18, 2017 (GMT -0800)
MGRZO3 | | Change Station

Elev 3634 ft 44.52 °N, 120.94 °W | Updated 10 minutes ago

Overcast
Overcast
39.0 °F
Feels Like 39 °F
N
-
Wind Variable Wind from North

Today
High -- | Low -- °F
--% Chance of Precip.
Yesterday
High -- | Low -- °F
Precip. -- in
Pressure 29.50 in
Visibility 10.0 miles
Clouds Overcast 6000 ft
Windchill 39 °F
Dew Point Not available.
Humidity Not available.
Rainfall 0.19 in
Snow Depth Not available.
7:35 AM 4:54 PM
Waning Gibbous, 56% visible
METAR KRDM 190656Z AUTO 19010KT 10SM OVC060 05/M02 A2949 RMK AO2 SLP989 T00501022
Pressure 29.50 in
Visibility 10.0 miles
Clouds Overcast 6000 ft
Windchill 39 °F
Dew Point Not available.
Humidity Not available.
Rainfall 0.19 in
Snow Depth Not available.
7:35 AM 4:54 PM
Waning Gibbous, 56% visible
METAR KRDM 190656Z AUTO 19010KT 10SM OVC060 05/M02 A2949 RMK AO2 SLP989 T00501022

Get Your Daily Forecast Email!

Thanks for signing up!

Be on the lookout for a verification email in your inbox.

You'll start receiving the daily forecast at 8 AM.

×

10-Day Weather Forecast

Almanac

Astronomy

Jan. 18, 2017 Rise Set
Actual Time
Civil Twilight
Nautical Twilight
Astronomical Twilight
Moon
Length of Visible Light
Length of Day
Tomorrow will be .
, % of the Moon is Illuminated

Today's Extremes

State Highs State Lows

Community

WunderPhotos

Upload Photos

1,962,540 photos uploaded!

WunderBlog® & News

Nearby

Air Quality

  Air Quality AQ Index Pollutant
Not available.

Snow Depth

Station Depth Elevation

Earthquake Activity

City Distance Mag. Time & Date
Minimum magnitude displayed is 2.5.

Coastal Water Temperatures

Place Temperature

Stations

Nearby Weather Stations

Station Location Temp. Windchill Dew Point Humidity Wind Precip. Elev Updated Type
                   

Watches & Warnings

There are currently no watches in effect.